createdAt,value
2023-03-05T00:00:48.516Z,1.83
2023-03-05T00:03:14.785Z,1.82
2023-03-05T00:05:40.710Z,1.69
2023-03-05T00:08:07.015Z,1.73
2023-03-05T00:10:32.895Z,1.83
2023-03-05T00:12:58.904Z,1.76
2023-03-05T00:15:24.851Z,1.83
2023-03-05T00:17:50.654Z,1.79
2023-03-05T00:20:16.793Z,1.80
2023-03-05T00:22:43.058Z,1.85
2023-03-05T00:25:09.151Z,1.85
2023-03-05T00:27:35.028Z,1.90
2023-03-05T00:30:01.123Z,2.02
2023-03-05T00:32:26.961Z,1.88
2023-03-05T00:34:52.928Z,1.89
2023-03-05T00:37:18.826Z,1.88
2023-03-05T00:39:44.715Z,1.85
2023-03-05T00:42:10.537Z,1.80
2023-03-05T00:44:36.437Z,1.81
2023-03-05T00:47:02.314Z,1.85
2023-03-05T00:49:28.151Z,1.85
2023-03-05T00:51:54.442Z,1.87
2023-03-05T00:54:20.331Z,1.80
2023-03-05T00:56:46.882Z,1.87
2023-03-05T00:59:13.059Z,1.92
2023-03-05T01:01:39.248Z,1.90
2023-03-05T01:04:05.110Z,1.93
2023-03-05T01:06:30.988Z,1.91
2023-03-05T01:08:56.989Z,1.98
2023-03-05T01:11:22.895Z,1.96
2023-03-05T01:13:48.743Z,1.86
2023-03-05T01:16:14.760Z,1.96
2023-03-05T01:18:40.804Z,2.01
2023-03-05T01:21:07.151Z,1.98
2023-03-05T01:23:34.964Z,2.04
2023-03-05T01:26:00.889Z,2.02
2023-03-05T01:28:27.727Z,2.06
2023-03-05T01:30:53.562Z,1.97
2023-03-05T01:33:19.457Z,1.96
2023-03-05T01:35:47.617Z,2.00
2023-03-05T01:38:14.506Z,2.02
2023-03-05T01:40:42.104Z,1.90
2023-03-05T01:43:22.648Z,1.93
2023-03-05T01:46:30.512Z,1.87
2023-03-05T01:49:02.256Z,1.83
2023-03-05T01:51:32.525Z,1.86
2023-03-05T01:54:00.078Z,1.84
2023-03-05T01:56:28.466Z,1.76
2023-03-05T01:59:02.457Z,1.76
2023-03-05T02:01:40.165Z,1.70
2023-03-05T02:04:08.599Z,1.64
2023-03-05T02:06:34.836Z,1.68
2023-03-05T02:09:00.679Z,1.68
2023-03-05T02:11:26.604Z,1.57
2023-03-05T02:13:52.533Z,1.60
2023-03-05T02:16:18.533Z,1.58
2023-03-05T02:18:44.573Z,1.55
2023-03-05T02:21:11.103Z,1.57
2023-03-05T02:23:38.092Z,1.56
2023-03-05T02:26:09.753Z,1.63
2023-03-05T02:28:56.405Z,1.58
2023-03-05T02:31:24.473Z,1.54
2023-03-05T02:33:51.186Z,1.50
2023-03-05T02:36:18.115Z,1.51
2023-03-05T02:38:45.100Z,1.52
2023-03-05T02:41:11.718Z,1.49
2023-03-05T02:43:37.851Z,1.46
2023-03-05T02:46:04.329Z,1.41
2023-03-05T02:48:30.632Z,1.45
2023-03-05T02:50:57.278Z,1.49
2023-03-05T02:53:23.207Z,1.53
2023-03-05T02:55:49.471Z,1.49
2023-03-05T02:58:16.187Z,1.47
2023-03-05T03:00:42.603Z,1.37
2023-03-05T03:03:08.953Z,1.41
2023-03-05T03:05:35.772Z,1.42
2023-03-05T03:08:02.368Z,1.32
2023-03-05T03:10:28.254Z,1.36
2023-03-05T03:12:54.092Z,1.25
2023-03-05T03:15:20.611Z,1.29
2023-03-05T03:17:46.575Z,1.34
2023-03-05T03:20:14.845Z,1.26
2023-03-05T03:22:41.504Z,1.22
2023-03-05T03:25:07.809Z,1.16
2023-03-05T03:27:33.704Z,1.14
2023-03-05T03:30:04.212Z,1.24
2023-03-05T03:32:31.036Z,1.26
2023-03-05T03:34:57.199Z,1.31
2023-03-05T03:37:23.292Z,1.32
2023-03-05T03:39:49.245Z,1.30
2023-03-05T03:42:20.976Z,1.31
2023-03-05T03:44:47.709Z,1.38
2023-03-05T03:47:13.560Z,1.30
2023-03-05T03:49:39.607Z,1.25
2023-03-05T03:52:05.942Z,1.22
2023-03-05T03:54:32.278Z,1.16
2023-03-05T03:56:58.223Z,1.27
2023-03-05T03:59:24.099Z,1.21
2023-03-05T04:01:50.025Z,1.23
2023-03-05T04:04:16.038Z,1.30
2023-03-05T04:06:42.467Z,1.28
2023-03-05T04:09:08.799Z,1.22
2023-03-05T04:11:36.530Z,1.21
2023-03-05T04:14:03.687Z,1.22
2023-03-05T04:16:29.555Z,1.30
2023-03-05T04:18:55.450Z,1.21
2023-03-05T04:21:21.297Z,1.17
2023-03-05T04:23:47.289Z,1.16
2023-03-05T04:26:13.189Z,1.12
2023-03-05T04:28:39.100Z,1.15
2023-03-05T04:31:04.995Z,1.10
2023-03-05T04:33:31.018Z,1.09
2023-03-05T04:35:57.170Z,1.16
2023-03-05T04:38:23.267Z,1.20
2023-03-05T04:40:49.049Z,1.32
2023-03-05T04:43:14.960Z,1.21
2023-03-05T04:45:41.937Z,1.32
2023-03-05T04:48:10.034Z,1.20
2023-03-05T04:50:36.062Z,1.20
2023-03-05T04:53:02.672Z,1.36
2023-03-05T04:55:28.727Z,1.28
2023-03-05T04:57:54.810Z,1.08
2023-03-05T05:00:21.092Z,1.13
2023-03-05T05:02:49.384Z,1.07
2023-03-05T05:05:19.206Z,0.92
2023-03-05T05:07:45.136Z,1.01
2023-03-05T05:10:12.151Z,0.96
2023-03-05T05:12:38.430Z,1.06
2023-03-05T05:15:06.981Z,1.01
2023-03-05T05:17:33.773Z,1.01
2023-03-05T05:20:00.803Z,1.06
2023-03-05T05:22:28.714Z,1.07
2023-03-05T05:24:55.141Z,1.20
2023-03-05T05:27:21.313Z,1.10
2023-03-05T05:29:49.541Z,1.15
2023-03-05T05:32:17.080Z,1.12
2023-03-05T05:34:42.928Z,1.09
2023-03-05T05:37:08.783Z,0.95
2023-03-05T05:39:34.999Z,0.93
2023-03-05T05:42:01.121Z,1.05
2023-03-05T05:44:27.290Z,0.97
2023-03-05T05:46:53.360Z,0.93
2023-03-05T05:49:19.378Z,0.90
2023-03-05T05:51:45.229Z,0.97
2023-03-05T05:54:14.815Z,1.02
2023-03-05T05:56:41.081Z,0.93
2023-03-05T05:59:07.643Z,0.95
2023-03-05T06:01:34.353Z,0.96
2023-03-05T06:04:00.579Z,1.02
2023-03-05T06:06:27.072Z,0.98
2023-03-05T06:08:53.498Z,0.96
2023-03-05T06:11:20.284Z,0.99
2023-03-05T06:13:47.748Z,1.01
2023-03-05T06:16:19.506Z,1.02
2023-03-05T06:18:45.485Z,1.02
2023-03-05T06:21:14.833Z,0.89
2023-03-05T06:23:41.438Z,0.94
2023-03-05T06:26:08.783Z,0.97
2023-03-05T06:28:38.084Z,0.90
2023-03-05T06:31:06.667Z,0.98
2023-03-05T06:33:33.103Z,0.97
2023-03-05T06:35:59.467Z,0.99
2023-03-05T06:38:25.678Z,1.00
2023-03-05T06:40:51.796Z,0.89
2023-03-05T06:43:17.730Z,0.93
2023-03-05T06:45:43.701Z,0.88
2023-03-05T06:48:10.928Z,0.92
2023-03-05T06:50:37.105Z,0.88
2023-03-05T06:53:03.521Z,0.95
2023-03-05T06:55:29.527Z,0.88
2023-03-05T06:57:55.396Z,0.89
2023-03-05T07:00:21.688Z,0.95
2023-03-05T07:02:47.593Z,0.97
2023-03-05T07:05:13.665Z,0.86
2023-03-05T07:07:39.502Z,0.91
2023-03-05T07:10:08.714Z,1.00
2023-03-05T07:12:34.771Z,0.94
2023-03-05T07:15:00.798Z,0.89
2023-03-05T07:17:27.257Z,0.88
2023-03-05T07:19:53.182Z,1.03
2023-03-05T07:22:19.232Z,1.02
2023-03-05T07:24:46.837Z,1.03
2023-03-05T07:27:12.697Z,1.03
2023-03-05T07:29:38.551Z,1.05
2023-03-05T07:32:04.856Z,1.00
2023-03-05T07:34:30.891Z,1.06
2023-03-05T07:36:56.793Z,1.01
2023-03-05T07:39:23.262Z,0.91
2023-03-05T07:41:50.793Z,0.82
2023-03-05T07:44:17.052Z,0.95
2023-03-05T07:46:43.044Z,0.99
2023-03-05T07:49:08.877Z,0.95
2023-03-05T07:51:34.982Z,0.97
2023-03-05T07:54:01.389Z,1.01
2023-03-05T07:56:34.590Z,0.94
2023-03-05T07:59:03.417Z,0.95
2023-03-05T08:01:30.388Z,0.91
2023-03-05T08:03:56.848Z,0.94
2023-03-05T08:06:22.763Z,0.88
2023-03-05T08:08:48.641Z,0.98
2023-03-05T08:11:15.743Z,1.04
2023-03-05T08:13:43.015Z,0.97
2023-03-05T08:16:12.124Z,1.01
2023-03-05T08:18:38.003Z,1.05
2023-03-05T08:21:04.454Z,1.05
2023-03-05T08:23:30.633Z,1.03
2023-03-05T08:25:56.606Z,1.07
2023-03-05T08:28:23.141Z,1.04
2023-03-05T08:30:49.086Z,1.05
2023-03-05T08:33:16.872Z,1.05
2023-03-05T08:35:43.458Z,1.06
2023-03-05T08:38:09.387Z,1.08
2023-03-05T08:40:35.245Z,1.03
2023-03-05T08:43:01.208Z,1.04
2023-03-05T08:45:27.858Z,1.08
2023-03-05T08:47:56.510Z,1.16
2023-03-05T08:50:22.915Z,1.06
2023-03-05T08:52:49.778Z,1.12
2023-03-05T08:55:15.959Z,1.15
2023-03-05T08:57:41.995Z,1.17
2023-03-05T09:00:09.659Z,1.15
2023-03-05T09:02:36.459Z,1.14
2023-03-05T09:05:03.276Z,1.24
2023-03-05T09:07:29.112Z,1.17
2023-03-05T09:09:54.971Z,1.34
2023-03-05T09:12:20.757Z,1.59
2023-03-05T09:14:46.724Z,1.52
2023-03-05T09:17:12.643Z,1.40
2023-03-05T09:19:38.520Z,1.42
2023-03-05T09:22:04.373Z,1.44
2023-03-05T09:24:30.244Z,1.55
2023-03-05T09:26:59.676Z,1.60
2023-03-05T09:29:26.897Z,1.60
2023-03-05T09:31:53.216Z,1.62
2023-03-05T09:34:19.230Z,1.45
2023-03-05T09:36:46.797Z,1.47
2023-03-05T09:39:12.661Z,1.66
2023-03-05T09:42:23.645Z,1.63
2023-03-05T09:45:01.875Z,1.66
2023-03-05T09:47:56.528Z,1.66
2023-03-05T09:50:34.105Z,1.44
2023-03-05T09:53:27.943Z,1.29
2023-03-05T09:55:55.783Z,1.18
2023-03-05T09:58:42.700Z,1.30
2023-03-05T10:01:28.437Z,1.42
2023-03-05T10:04:15.979Z,1.42
2023-03-05T10:06:44.478Z,1.47
2023-03-05T10:09:10.553Z,1.58
2023-03-05T10:12:14.834Z,1.59
2023-03-05T10:14:41.249Z,1.58
2023-03-05T10:17:40.935Z,1.57
2023-03-05T10:20:21.963Z,1.47
2023-03-05T10:23:09.885Z,1.34
2023-03-05T10:26:00.048Z,1.31
2023-03-05T10:28:35.285Z,1.42
2023-03-05T10:31:20.587Z,1.42
2023-03-05T10:34:23.318Z,1.31
2023-03-05T10:37:37.262Z,1.24
2023-03-05T10:40:31.915Z,1.28
2023-03-05T10:43:14.298Z,1.25
2023-03-05T10:45:44.857Z,1.28
2023-03-05T10:48:22.834Z,1.18
2023-03-05T10:50:53.394Z,1.24
2023-03-05T10:53:36.010Z,1.37
2023-03-05T10:56:03.794Z,1.28
2023-03-05T10:58:42.614Z,1.48
2023-03-05T11:01:11.600Z,1.36
2023-03-05T11:03:49.042Z,1.30
2023-03-05T11:06:15.459Z,1.28
2023-03-05T11:08:41.773Z,1.32
2023-03-05T11:11:07.570Z,1.42
2023-03-05T11:13:36.792Z,1.41
2023-03-05T11:16:06.010Z,1.54
2023-03-05T11:18:36.915Z,1.62
2023-03-05T11:21:12.756Z,1.45
2023-03-05T11:23:38.682Z,1.48
2023-03-05T11:26:07.499Z,1.41
2023-03-05T11:28:34.075Z,1.49
2023-03-05T11:31:02.228Z,1.41
2023-03-05T11:33:30.162Z,1.41
2023-03-05T11:36:33.235Z,1.49
2023-03-05T11:39:23.240Z,1.51
2023-03-05T11:42:01.198Z,1.73
2023-03-05T11:44:45.798Z,1.66
2023-03-05T11:47:17.495Z,1.63
2023-03-05T11:49:47.002Z,1.92
2023-03-05T11:52:25.840Z,1.93
2023-03-05T11:55:12.217Z,1.98
2023-03-05T11:57:52.561Z,2.19
2023-03-05T12:00:29.323Z,2.15
2023-03-05T12:03:01.736Z,2.09
2023-03-05T12:05:30.073Z,2.25
2023-03-05T12:08:00.443Z,2.28
2023-03-05T12:10:29.102Z,2.31
2023-03-05T12:13:07.179Z,2.35
2023-03-05T12:15:58.256Z,2.41
2023-03-05T12:18:33.291Z,2.44
2023-03-05T12:21:02.091Z,2.36
2023-03-05T12:23:28.139Z,2.20
2023-03-05T12:25:58.613Z,2.01
2023-03-05T12:28:33.546Z,2.01
2023-03-05T12:31:37.093Z,2.04
2023-03-05T12:34:44.647Z,1.93
2023-03-05T12:37:33.221Z,1.86
2023-03-05T12:40:00.351Z,1.80
2023-03-05T12:42:29.311Z,1.78
2023-03-05T12:45:18.593Z,1.84
2023-03-05T12:48:11.391Z,1.85
2023-03-05T12:50:37.170Z,1.76
2023-03-05T12:53:06.317Z,1.59
2023-03-05T12:55:34.298Z,1.60
2023-03-05T12:58:08.648Z,1.66
2023-03-05T13:00:43.084Z,1.79
2023-03-05T13:03:15.221Z,1.84
2023-03-05T13:05:49.680Z,1.83
2023-03-05T13:08:30.930Z,1.94
2023-03-05T13:11:00.708Z,2.04
2023-03-05T13:13:29.946Z,2.05
2023-03-05T13:15:56.598Z,2.05
2023-03-05T13:18:25.327Z,2.05
2023-03-05T13:21:06.623Z,2.12
2023-03-05T13:23:34.528Z,2.32
2023-03-05T13:26:17.985Z,2.29
2023-03-05T13:29:06.672Z,2.31
2023-03-05T13:31:34.795Z,2.48
2023-03-05T13:34:18.629Z,2.33
2023-03-05T13:37:01.380Z,2.36
2023-03-05T13:39:31.909Z,2.45
2023-03-05T13:42:01.403Z,2.62
2023-03-05T13:44:28.819Z,2.76
2023-03-05T13:47:16.833Z,2.97
2023-03-05T13:49:43.439Z,3.19
2023-03-05T13:52:10.115Z,3.30
2023-03-05T13:54:36.239Z,3.31
2023-03-05T13:57:04.840Z,3.40
2023-03-05T13:59:33.356Z,3.49
2023-03-05T14:02:02.466Z,3.71
2023-03-05T14:04:33.473Z,3.86
2023-03-05T14:07:05.672Z,3.61
2023-03-05T14:09:46.568Z,3.40
2023-03-05T14:12:37.469Z,3.21
2023-03-05T14:15:20.161Z,3.20
2023-03-05T14:17:46.477Z,2.98
2023-03-05T14:20:12.221Z,2.78
2023-03-05T14:22:44.329Z,2.72
2023-03-05T14:25:29.084Z,2.78
2023-03-05T14:27:56.555Z,2.73
2023-03-05T14:30:24.125Z,2.75
2023-03-05T14:32:53.891Z,2.73
2023-03-05T14:35:26.113Z,2.65
2023-03-05T14:37:55.726Z,2.66
2023-03-05T14:40:27.527Z,2.69
2023-03-05T14:42:55.393Z,2.66
2023-03-05T14:45:24.380Z,2.80
2023-03-05T14:47:51.665Z,2.87
2023-03-05T14:50:50.993Z,2.91
2023-03-05T14:53:30.118Z,2.75
2023-03-05T14:55:56.494Z,2.68
2023-03-05T14:58:26.755Z,2.73
2023-03-05T15:00:53.305Z,2.65
2023-03-05T15:03:20.099Z,2.69
2023-03-05T15:05:49.022Z,2.57
2023-03-05T15:08:18.211Z,2.76
2023-03-05T15:10:44.308Z,2.77
2023-03-05T15:13:12.720Z,2.78
2023-03-05T15:15:39.107Z,2.63
2023-03-05T15:18:04.953Z,2.64
2023-03-05T15:20:32.086Z,2.88
2023-03-05T15:22:58.175Z,2.73
2023-03-05T15:25:28.007Z,2.68
2023-03-05T15:27:54.005Z,2.80
2023-03-05T15:30:29.862Z,2.70
2023-03-05T15:32:57.275Z,2.70
2023-03-05T15:35:24.255Z,2.53
2023-03-05T15:37:50.895Z,2.55
2023-03-05T15:40:20.214Z,2.53
2023-03-05T15:42:47.174Z,2.51
2023-03-05T15:45:13.060Z,2.42
2023-03-05T15:47:39.070Z,2.49
2023-03-05T15:50:06.295Z,2.48
2023-03-05T15:52:32.513Z,2.44
2023-03-05T15:54:59.806Z,2.30
2023-03-05T15:57:26.497Z,2.24
2023-03-05T15:59:53.668Z,2.24
2023-03-05T16:02:19.611Z,2.16
2023-03-05T16:04:45.708Z,2.22
2023-03-05T16:07:13.907Z,2.32
2023-03-05T16:09:47.521Z,2.35
2023-03-05T16:12:18.123Z,2.41
2023-03-05T16:14:45.564Z,2.47
2023-03-05T16:17:12.794Z,2.34
2023-03-05T16:19:42.209Z,2.24
2023-03-05T16:22:08.100Z,2.26
2023-03-05T16:24:34.382Z,2.28
2023-03-05T16:27:00.245Z,2.18
2023-03-05T16:29:29.341Z,2.13
2023-03-05T16:31:56.683Z,2.12
2023-03-05T16:34:22.679Z,2.18
2023-03-05T16:36:51.912Z,2.19
2023-03-05T16:39:19.260Z,2.18
2023-03-05T16:41:47.214Z,2.23
2023-03-05T16:44:13.157Z,2.34
2023-03-05T16:46:41.191Z,2.22
2023-03-05T16:49:07.871Z,2.12
2023-03-05T16:51:34.435Z,2.13
2023-03-05T16:54:00.695Z,1.98
2023-03-05T16:56:26.791Z,1.97
2023-03-05T16:58:55.005Z,1.97
2023-03-05T17:01:22.030Z,1.91
2023-03-05T17:03:49.161Z,2.05
2023-03-05T17:06:22.431Z,1.89
2023-03-05T17:08:49.301Z,1.99
2023-03-05T17:11:15.708Z,2.01
2023-03-05T17:13:41.849Z,1.84
2023-03-05T17:16:09.604Z,1.80
2023-03-05T17:18:35.743Z,1.92
2023-03-05T17:21:03.030Z,1.85
2023-03-05T17:23:28.947Z,1.88
2023-03-05T17:25:55.011Z,1.92
2023-03-05T17:28:21.085Z,1.83
2023-03-05T17:30:47.010Z,1.79
2023-03-05T17:33:13.031Z,1.78
2023-03-05T17:35:39.170Z,1.83
2023-03-05T17:38:07.338Z,1.82
2023-03-05T17:40:33.935Z,1.72
2023-03-05T17:43:00.403Z,1.74
2023-03-05T17:45:26.650Z,1.69
2023-03-05T17:47:52.795Z,1.73
2023-03-05T17:50:19.389Z,1.69
2023-03-05T17:52:45.604Z,1.69
2023-03-05T17:55:15.125Z,1.78
2023-03-05T17:57:42.632Z,1.72
2023-03-05T18:00:23.582Z,1.82
2023-03-05T18:02:50.229Z,1.82
2023-03-05T18:05:17.866Z,1.84
2023-03-05T18:07:43.969Z,1.70
2023-03-05T18:10:11.836Z,1.83
2023-03-05T18:12:37.772Z,1.70
2023-03-05T18:15:05.558Z,1.62
2023-03-05T18:17:31.536Z,1.58
2023-03-05T18:19:57.554Z,1.52
2023-03-05T18:22:23.923Z,1.59
2023-03-05T18:24:50.000Z,1.57
2023-03-05T18:27:15.889Z,1.49
2023-03-05T18:29:41.785Z,1.55
2023-03-05T18:32:07.971Z,1.49
2023-03-05T18:34:34.164Z,1.51
2023-03-05T18:37:00.172Z,1.46
2023-03-05T18:39:28.582Z,1.52
2023-03-05T18:41:55.452Z,1.59
2023-03-05T18:44:21.794Z,1.58
2023-03-05T18:46:47.683Z,1.56
2023-03-05T18:49:13.738Z,1.63
2023-03-05T18:51:40.986Z,1.65
2023-03-05T18:54:08.016Z,1.59
2023-03-05T18:56:34.043Z,1.42
2023-03-05T18:59:00.041Z,1.51
2023-03-05T19:01:26.254Z,1.59
2023-03-05T19:03:52.445Z,1.58
2023-03-05T19:06:18.753Z,1.60
2023-03-05T19:08:45.901Z,1.53
2023-03-05T19:11:17.561Z,1.42
2023-03-05T19:13:51.060Z,1.48
2023-03-05T19:16:29.774Z,1.48
2023-03-05T19:19:14.663Z,1.50
2023-03-05T19:21:42.986Z,1.49
2023-03-05T19:24:10.560Z,1.54
2023-03-05T19:26:40.831Z,1.52
2023-03-05T19:29:07.658Z,1.51
2023-03-05T19:31:34.295Z,1.57
2023-03-05T19:34:01.071Z,1.47
2023-03-05T19:36:27.198Z,1.44
2023-03-05T19:38:53.171Z,1.46
2023-03-05T19:41:20.952Z,1.42
2023-03-05T19:43:49.068Z,1.45
2023-03-05T19:46:15.858Z,1.43
2023-03-05T19:48:42.361Z,1.40
2023-03-05T19:51:10.774Z,1.47
2023-03-05T19:53:38.444Z,1.31
2023-03-05T19:56:05.621Z,1.38
2023-03-05T19:58:32.876Z,1.42
2023-03-05T20:01:17.129Z,1.45
2023-03-05T20:03:47.769Z,1.39
2023-03-05T20:06:14.133Z,1.46
2023-03-05T20:08:40.425Z,1.43
2023-03-05T20:11:06.804Z,1.42
2023-03-05T20:13:32.866Z,1.43
2023-03-05T20:15:58.795Z,1.43
2023-03-05T20:18:24.808Z,1.53
2023-03-05T20:20:56.989Z,1.57
2023-03-05T20:23:23.889Z,1.60
2023-03-05T20:25:51.307Z,1.54
2023-03-05T20:28:17.350Z,1.49
2023-03-05T20:30:43.160Z,1.45
2023-03-05T20:33:10.244Z,1.36
2023-03-05T20:35:36.229Z,1.52
2023-03-05T20:38:28.902Z,1.46
2023-03-05T20:41:06.617Z,1.37
2023-03-05T20:43:35.244Z,1.45
2023-03-05T20:46:01.873Z,1.47
2023-03-05T20:48:33.499Z,1.47
2023-03-05T20:51:11.056Z,1.47
2023-03-05T20:53:37.182Z,1.44
2023-03-05T20:56:03.367Z,1.41
2023-03-05T20:58:29.364Z,1.41
2023-03-05T21:00:55.425Z,1.46
2023-03-05T21:03:21.349Z,1.40
2023-03-05T21:05:47.289Z,1.46
2023-03-05T21:08:13.152Z,1.43
2023-03-05T21:10:39.175Z,1.44
2023-03-05T21:13:04.996Z,1.46
2023-03-05T21:15:31.140Z,1.50
2023-03-05T21:17:57.479Z,1.50
2023-03-05T21:20:29.215Z,1.68
2023-03-05T21:22:55.840Z,1.52
2023-03-05T21:25:28.255Z,1.43
2023-03-05T21:28:05.158Z,1.45
2023-03-05T21:30:42.858Z,1.39
2023-03-05T21:33:15.709Z,1.42
2023-03-05T21:35:42.405Z,1.40
2023-03-05T21:38:09.736Z,1.34
2023-03-05T21:40:42.722Z,1.30
2023-03-05T21:43:12.288Z,1.28
2023-03-05T21:45:39.748Z,1.38
2023-03-05T21:48:06.044Z,1.45
2023-03-05T21:50:35.285Z,1.47
2023-03-05T21:53:02.447Z,1.46
2023-03-05T21:55:44.378Z,1.43
2023-03-05T21:58:10.507Z,1.31
2023-03-05T22:00:36.906Z,1.36
2023-03-05T22:03:03.198Z,1.45
2023-03-05T22:05:29.147Z,1.38
2023-03-05T22:07:56.207Z,1.42
2023-03-05T22:10:22.172Z,1.53
2023-03-05T22:13:10.075Z,1.45
2023-03-05T22:15:46.275Z,1.36
2023-03-05T22:18:13.546Z,1.44
2023-03-05T22:20:40.063Z,1.43
2023-03-05T22:23:06.032Z,1.53
2023-03-05T22:25:33.786Z,1.41
2023-03-05T22:27:59.779Z,1.26
2023-03-05T22:30:25.663Z,1.26
2023-03-05T22:32:51.612Z,1.21
2023-03-05T22:35:17.538Z,1.19
2023-03-05T22:37:43.580Z,1.32
2023-03-05T22:40:14.052Z,1.29
2023-03-05T22:42:40.632Z,1.32
2023-03-05T22:45:10.652Z,1.38
2023-03-05T22:47:36.421Z,1.34
2023-03-05T22:50:03.447Z,1.32
2023-03-05T22:52:29.278Z,1.30
2023-03-05T22:54:56.108Z,1.28
2023-03-05T22:57:22.064Z,1.25
2023-03-05T22:59:49.089Z,1.19
2023-03-05T23:02:16.268Z,1.25
2023-03-05T23:04:48.826Z,1.29
2023-03-05T23:07:21.019Z,1.24
2023-03-05T23:10:08.313Z,1.26
2023-03-05T23:12:37.222Z,1.31
2023-03-05T23:15:07.328Z,1.27
2023-03-05T23:17:33.224Z,1.36
2023-03-05T23:19:59.128Z,1.37
2023-03-05T23:22:25.039Z,1.29
2023-03-05T23:24:50.843Z,1.31
2023-03-05T23:27:17.912Z,1.35
2023-03-05T23:29:58.096Z,1.25
2023-03-05T23:32:27.385Z,1.23
2023-03-05T23:34:54.811Z,1.26
2023-03-05T23:37:20.647Z,1.31
2023-03-05T23:39:46.450Z,1.11
2023-03-05T23:42:12.301Z,1.07
2023-03-05T23:44:38.194Z,1.02
2023-03-05T23:47:03.998Z,1.01
2023-03-05T23:49:29.871Z,0.91
2023-03-05T23:51:55.668Z,0.85
2023-03-05T23:54:21.594Z,0.98
2023-03-05T23:56:47.433Z,0.98
2023-03-05T23:59:13.241Z,0.96
